createdAt,value
2023-04-28T00:01:50.800Z,49.91
2023-04-28T00:04:19.155Z,50.42
2023-04-28T00:06:47.562Z,49.85
2023-04-28T00:09:15.121Z,50.12
2023-04-28T00:11:42.964Z,49.97
2023-04-28T00:14:10.577Z,50.03
2023-04-28T00:16:38.360Z,50.22
2023-04-28T00:19:06.437Z,50.06
2023-04-28T00:21:34.414Z,50.31
2023-04-28T00:24:02.090Z,50.23
2023-04-28T00:26:29.626Z,49.71
2023-04-28T00:28:57.221Z,49.80
2023-04-28T00:31:25.257Z,49.73
2023-04-28T00:33:53.200Z,49.90
2023-04-28T00:36:20.793Z,49.32
2023-04-28T00:38:48.412Z,49.51
2023-04-28T00:41:15.992Z,49.51
2023-04-28T00:43:43.937Z,49.39
2023-04-28T00:46:12.905Z,49.95
2023-04-28T00:48:40.507Z,50.08
2023-04-28T00:51:08.104Z,49.64
2023-04-28T00:53:35.684Z,49.79
2023-04-28T00:56:03.634Z,49.76
2023-04-28T00:58:31.242Z,49.91
2023-04-28T01:00:58.792Z,49.82
2023-04-28T01:03:26.528Z,50.10
2023-04-28T01:05:54.232Z,50.12
2023-04-28T01:08:22.465Z,49.90
2023-04-28T01:10:50.037Z,50.08
2023-04-28T01:13:17.637Z,50.03
2023-04-28T01:15:45.196Z,49.75
2023-04-28T01:18:13.469Z,50.19
2023-04-28T01:20:41.453Z,50.47
2023-04-28T01:23:09.298Z,50.88
2023-04-28T01:25:36.872Z,50.46
2023-04-28T01:28:04.491Z,51.22
2023-04-28T01:30:32.325Z,51.27
2023-04-28T01:33:00.336Z,51.42
2023-04-28T01:35:28.038Z,51.27
2023-04-28T01:37:55.599Z,51.78
2023-04-28T01:40:23.212Z,51.57
2023-04-28T01:42:51.192Z,51.69
2023-04-28T01:45:19.180Z,51.75
2023-04-28T01:47:47.117Z,51.97
2023-04-28T01:50:14.822Z,52.07
2023-04-28T01:52:42.702Z,52.11
2023-04-28T01:55:10.265Z,51.29
2023-04-28T01:57:38.157Z,51.65
2023-04-28T02:00:06.084Z,52.11
2023-04-28T02:02:33.755Z,51.61
2023-04-28T02:05:01.513Z,52.23
2023-04-28T02:07:29.126Z,52.24
2023-04-28T02:09:57.089Z,52.52
2023-04-28T02:12:24.702Z,52.76
2023-04-28T02:14:52.594Z,52.47
2023-04-28T02:17:20.150Z,52.88
2023-04-28T02:19:47.765Z,53.05
2023-04-28T02:22:15.712Z,53.14
2023-04-28T02:24:43.652Z,52.53
2023-04-28T02:27:11.244Z,53.17
2023-04-28T02:29:38.831Z,53.32
2023-04-28T02:32:06.417Z,53.07
2023-04-28T02:34:34.428Z,52.76
2023-04-28T02:37:03.010Z,53.31
2023-04-28T02:39:31.244Z,53.06
2023-04-28T02:41:58.962Z,53.52
2023-04-28T02:44:27.069Z,53.81
2023-04-28T02:46:55.046Z,54.08
2023-04-28T02:49:23.002Z,53.92
2023-04-28T02:51:50.611Z,53.97
2023-04-28T02:54:27.344Z,53.90
2023-04-28T02:56:55.346Z,53.99
2023-04-28T02:59:22.975Z,54.46
2023-04-28T03:01:50.586Z,54.57
2023-04-28T03:04:18.464Z,54.38
2023-04-28T03:06:46.195Z,54.67
2023-04-28T03:09:14.469Z,54.45
2023-04-28T03:11:42.845Z,54.33
2023-04-28T03:14:10.413Z,54.62
2023-04-28T03:16:38.104Z,54.77
2023-04-28T03:19:06.066Z,54.96
2023-04-28T03:21:34.348Z,54.86
2023-04-28T03:24:04.061Z,55.17
2023-04-28T03:26:32.956Z,55.58
2023-04-28T03:29:00.528Z,54.98
2023-04-28T03:31:28.149Z,55.39
2023-04-28T03:33:56.165Z,55.36
2023-04-28T03:36:24.050Z,55.99
2023-04-28T03:38:51.724Z,55.97
2023-04-28T03:41:19.827Z,56.24
2023-04-28T03:43:47.551Z,56.43
2023-04-28T03:46:15.625Z,56.66
2023-04-28T03:48:43.552Z,56.23
2023-04-28T03:51:11.161Z,56.17
2023-04-28T03:53:38.756Z,56.70
2023-04-28T03:56:06.345Z,56.58
2023-04-28T03:58:34.304Z,56.69
2023-04-28T04:01:02.311Z,56.98
2023-04-28T04:03:30.331Z,56.54
2023-04-28T04:05:58.068Z,56.69
2023-04-28T04:08:25.700Z,56.85
2023-04-28T04:10:55.313Z,57.34
2023-04-28T04:13:22.882Z,56.74
2023-04-28T04:15:52.803Z,56.93
2023-04-28T04:18:20.493Z,56.84
2023-04-28T04:20:48.088Z,57.33
2023-04-28T04:23:16.071Z,57.54
2023-04-28T04:25:43.622Z,57.04
2023-04-28T04:28:11.227Z,56.98
2023-04-28T04:30:38.848Z,57.28
2023-04-28T04:33:06.491Z,56.93
2023-04-28T04:35:34.477Z,57.09
2023-04-28T04:38:02.213Z,57.74
2023-04-28T04:40:29.874Z,57.26
2023-04-28T04:42:57.450Z,57.45
2023-04-28T04:45:25.395Z,57.65
2023-04-28T04:47:53.446Z,57.17
2023-04-28T04:50:21.160Z,57.49
2023-04-28T04:52:48.883Z,57.40
2023-04-28T04:55:16.557Z,57.66
2023-04-28T04:57:44.137Z,57.38
2023-04-28T05:00:12.139Z,57.73
2023-04-28T05:02:40.305Z,57.51
2023-04-28T05:05:20.680Z,57.61
2023-04-28T05:07:49.875Z,57.37
2023-04-28T05:10:17.921Z,57.63
2023-04-28T05:12:48.818Z,57.86
2023-04-28T05:15:16.923Z,57.71
2023-04-28T05:17:44.579Z,57.95
2023-04-28T05:20:12.920Z,57.89
2023-04-28T05:22:41.133Z,57.54
2023-04-28T05:25:09.047Z,57.71
2023-04-28T05:27:37.955Z,57.68
2023-04-28T05:30:05.858Z,58.01
2023-04-28T05:32:33.551Z,58.28
2023-04-28T05:35:01.654Z,57.78
2023-04-28T05:37:29.329Z,58.05
2023-04-28T05:39:56.986Z,58.08
2023-04-28T05:42:24.577Z,58.34
2023-04-28T05:44:52.313Z,58.80
2023-04-28T05:47:20.864Z,58.08
2023-04-28T05:49:48.499Z,57.90
2023-04-28T05:52:16.252Z,58.05
2023-04-28T05:54:43.984Z,58.30
2023-04-28T05:57:11.685Z,58.13
2023-04-28T05:59:39.824Z,58.14
2023-04-28T06:02:07.625Z,58.67
2023-04-28T06:04:35.556Z,58.06
2023-04-28T06:07:03.449Z,58.14
2023-04-28T06:09:31.469Z,58.19
2023-04-28T06:11:59.542Z,58.39
2023-04-28T06:14:27.321Z,58.43
2023-04-28T06:16:55.008Z,58.84
2023-04-28T06:19:22.688Z,58.83
2023-04-28T06:21:52.975Z,59.25
2023-04-28T06:24:21.282Z,59.14
2023-04-28T06:26:49.212Z,59.20
2023-04-28T06:29:16.958Z,59.21
2023-04-28T06:31:45.001Z,59.15
2023-04-28T06:34:12.766Z,59.65
2023-04-28T06:36:41.096Z,59.26
2023-04-28T06:39:09.477Z,59.87
2023-04-28T06:41:37.283Z,59.34
2023-04-28T06:44:05.712Z,59.45
2023-04-28T06:46:33.416Z,59.42
2023-04-28T06:49:01.827Z,59.38
2023-04-28T06:51:30.314Z,59.28
2023-04-28T06:53:58.306Z,58.83
2023-04-28T06:56:26.061Z,59.27
2023-04-28T06:58:53.944Z,59.19
2023-04-28T07:01:22.136Z,58.79
2023-04-28T07:03:50.492Z,58.83
2023-04-28T07:06:18.661Z,59.13
2023-04-28T07:08:46.609Z,58.87
2023-04-28T07:11:14.366Z,58.05
2023-04-28T07:13:42.513Z,58.03
2023-04-28T07:16:11.383Z,57.98
2023-04-28T07:18:39.199Z,57.43
2023-04-28T07:21:07.036Z,57.43
2023-04-28T07:23:34.853Z,57.05
2023-04-28T07:26:02.510Z,57.83
2023-04-28T07:28:30.491Z,56.81
2023-04-28T07:30:58.293Z,57.41
2023-04-28T07:33:25.976Z,57.46
2023-04-28T07:35:53.964Z,57.96
2023-04-28T07:38:22.338Z,58.43
2023-04-28T07:43:23.307Z,59.06
2023-04-28T07:45:51.150Z,59.51
2023-04-28T07:48:19.061Z,59.78
2023-04-28T07:50:46.872Z,59.97
2023-04-28T07:53:14.585Z,60.01
2023-04-28T07:55:44.828Z,59.54
2023-04-28T07:58:12.734Z,59.35
2023-04-28T08:00:42.284Z,58.87
2023-04-28T08:03:10.676Z,58.71
2023-04-28T08:05:38.782Z,58.80
2023-04-28T08:08:07.009Z,58.73
2023-04-28T08:10:34.869Z,58.72
2023-04-28T08:13:03.185Z,58.72
2023-04-28T08:15:31.734Z,58.70
2023-04-28T08:18:00.195Z,59.29
2023-04-28T08:20:28.082Z,58.44
2023-04-28T08:22:56.211Z,58.29
2023-04-28T08:25:23.980Z,58.59
2023-04-28T08:27:52.378Z,58.10
2023-04-28T08:30:20.270Z,58.82
2023-04-28T08:32:48.223Z,59.08
2023-04-28T08:35:16.223Z,59.46
2023-04-28T08:37:43.952Z,59.39
2023-04-28T08:40:12.045Z,59.11
2023-04-28T08:42:40.143Z,59.37
2023-04-28T08:45:08.299Z,59.00
2023-04-28T08:47:36.457Z,59.79
2023-04-28T08:50:04.834Z,60.19
2023-04-28T08:52:32.958Z,59.95
2023-04-28T08:55:01.493Z,60.24
2023-04-28T08:57:29.707Z,60.23
2023-04-28T08:59:57.481Z,59.95
2023-04-28T09:02:25.406Z,60.12
2023-04-28T09:04:53.525Z,60.02
2023-04-28T09:07:23.301Z,59.75
2023-04-28T09:09:51.224Z,59.72
2023-04-28T09:12:19.032Z,59.56
2023-04-28T09:14:46.947Z,58.96
2023-04-28T09:17:15.426Z,59.05
2023-04-28T09:19:44.612Z,58.85
2023-04-28T09:22:24.565Z,58.63
2023-04-28T09:24:53.753Z,57.88
2023-04-28T09:27:22.559Z,58.47
2023-04-28T09:29:50.622Z,58.90
2023-04-28T09:32:18.684Z,58.62
2023-04-28T09:34:46.808Z,59.44
2023-04-28T09:37:14.691Z,58.73
2023-04-28T09:39:43.134Z,58.56
2023-04-28T09:42:11.277Z,59.28
2023-04-28T09:44:39.179Z,58.87
2023-04-28T09:47:07.339Z,58.92
2023-04-28T09:49:35.458Z,59.25
2023-04-28T09:52:03.927Z,59.22
2023-04-28T09:54:32.038Z,59.37
2023-04-28T09:56:59.842Z,59.89
2023-04-28T09:59:28.010Z,59.75
2023-04-28T10:01:56.087Z,60.07
2023-04-28T10:04:24.817Z,59.80
2023-04-28T10:06:53.491Z,60.23
2023-04-28T10:09:27.096Z,60.37
2023-04-28T10:11:55.264Z,59.77
2023-04-28T10:14:23.323Z,60.64
2023-04-28T10:16:53.109Z,60.47
2023-04-28T10:19:21.412Z,60.73
2023-04-28T10:21:49.476Z,60.17
2023-04-28T10:24:17.728Z,60.36
2023-04-28T10:26:45.726Z,60.31
2023-04-28T10:29:14.005Z,60.19
2023-04-28T10:31:42.609Z,60.57
2023-04-28T10:34:10.824Z,60.97
2023-04-28T10:36:38.740Z,60.95
2023-04-28T10:39:06.953Z,60.81
2023-04-28T10:41:35.375Z,59.92
2023-04-28T10:44:03.740Z,59.04
2023-04-28T10:46:31.660Z,58.91
2023-04-28T10:48:59.558Z,58.61
2023-04-28T10:51:27.653Z,58.69
2023-04-28T10:53:55.981Z,57.64
2023-04-28T10:56:25.473Z,56.86
2023-04-28T10:58:53.392Z,56.82
2023-04-28T11:01:21.545Z,57.30
2023-04-28T11:03:51.513Z,57.61
2023-04-28T11:06:21.083Z,57.81
2023-04-28T11:08:49.242Z,58.29
2023-04-28T11:11:17.069Z,58.25
2023-04-28T11:13:47.264Z,58.75
2023-04-28T11:16:17.304Z,58.43
2023-04-28T11:18:45.441Z,58.47
2023-04-28T11:21:13.653Z,59.15
2023-04-28T11:23:41.648Z,59.23
2023-04-28T11:26:09.642Z,60.04
2023-04-28T11:28:38.217Z,60.47
2023-04-28T11:31:06.910Z,61.09
2023-04-28T11:33:35.223Z,61.02
2023-04-28T11:36:03.126Z,61.02
2023-04-28T11:38:31.590Z,61.63
2023-04-28T11:40:59.527Z,62.14
2023-04-28T11:43:36.528Z,62.68
2023-04-28T11:46:12.268Z,63.61
2023-04-28T11:48:41.098Z,63.37
2023-04-28T11:51:08.982Z,64.26
2023-04-28T11:53:37.622Z,64.60
2023-04-28T11:56:05.394Z,65.08
2023-04-28T11:58:33.533Z,65.02
2023-04-28T12:01:01.456Z,65.68
2023-04-28T12:03:29.450Z,66.20
2023-04-28T12:05:57.534Z,66.44
2023-04-28T12:08:25.520Z,66.90
2023-04-28T12:10:53.823Z,66.00
2023-04-28T12:13:21.656Z,65.75
2023-04-28T12:15:49.724Z,65.23
2023-04-28T12:18:20.308Z,65.51
2023-04-28T12:20:48.368Z,64.85
2023-04-28T12:23:16.412Z,64.96
2023-04-28T12:25:44.466Z,64.75
2023-04-28T12:28:12.299Z,64.99
2023-04-28T12:30:42.852Z,64.60
2023-04-28T12:33:10.923Z,64.84
2023-04-28T12:35:39.633Z,64.73
2023-04-28T12:38:07.541Z,64.37
2023-04-28T12:40:35.780Z,64.94
2023-04-28T12:43:04.154Z,65.24
2023-04-28T12:45:33.266Z,65.08
2023-04-28T12:48:01.934Z,64.54
2023-04-28T12:50:32.837Z,64.70
2023-04-28T12:53:00.812Z,64.09
2023-04-28T12:55:29.167Z,63.94
2023-04-28T12:57:57.041Z,63.67
2023-04-28T13:00:25.363Z,64.04
2023-04-28T13:02:53.916Z,63.51
2023-04-28T13:05:21.946Z,62.90
2023-04-28T13:07:51.374Z,62.84
2023-04-28T13:10:21.592Z,62.29
2023-04-28T13:12:49.911Z,62.46
2023-04-28T13:15:17.804Z,62.11
2023-04-28T13:17:46.660Z,61.57
2023-04-28T13:20:14.771Z,62.06
2023-04-28T13:22:42.778Z,62.01
2023-04-28T13:25:11.854Z,61.71
2023-04-28T13:27:41.923Z,61.37
2023-04-28T13:30:11.261Z,60.30
2023-04-28T13:32:39.724Z,60.11
2023-04-28T13:35:07.513Z,60.21
2023-04-28T13:37:38.296Z,59.37
2023-04-28T13:40:06.514Z,58.77
2023-04-28T13:42:34.529Z,58.54
2023-04-28T13:45:02.883Z,58.43
2023-04-28T13:47:32.847Z,58.27
2023-04-28T13:50:01.004Z,58.54
2023-04-28T13:52:28.990Z,59.16
2023-04-28T13:54:56.839Z,59.24
2023-04-28T13:57:25.145Z,59.78
2023-04-28T13:59:53.591Z,59.96
2023-04-28T14:02:21.717Z,59.99
2023-04-28T14:04:51.025Z,59.73
2023-04-28T14:07:19.337Z,59.40
2023-04-28T14:09:48.183Z,58.66
2023-04-28T14:12:16.549Z,58.47
2023-04-28T14:14:45.302Z,57.71
2023-04-28T14:17:13.622Z,57.64
2023-04-28T14:19:41.647Z,58.74
2023-04-28T14:22:10.040Z,59.18
2023-04-28T14:24:38.150Z,59.32
2023-04-28T14:27:06.460Z,58.78
2023-04-28T14:29:34.358Z,58.35
2023-04-28T14:32:02.574Z,56.55
2023-04-28T14:34:30.747Z,56.48
2023-04-28T14:36:58.688Z,56.53
2023-04-28T14:39:26.734Z,56.54
2023-04-28T14:41:54.658Z,57.12
2023-04-28T14:44:22.632Z,57.70
2023-04-28T14:46:50.912Z,57.60
2023-04-28T14:49:18.789Z,57.56
2023-04-28T14:51:47.318Z,57.35
2023-04-28T14:54:15.405Z,57.74
2023-04-28T14:56:43.129Z,57.87
2023-04-28T14:59:11.636Z,56.35
2023-04-28T15:01:39.598Z,55.96
2023-04-28T15:04:07.586Z,56.06
2023-04-28T15:06:35.534Z,56.97
2023-04-28T15:09:03.453Z,55.97
2023-04-28T15:11:31.599Z,56.14
2023-04-28T15:13:59.569Z,56.77
2023-04-28T15:16:28.453Z,57.14
2023-04-28T15:18:56.246Z,57.46
2023-04-28T15:21:24.223Z,55.82
2023-04-28T15:23:52.568Z,55.23
2023-04-28T15:26:20.380Z,54.17
2023-04-28T15:28:48.826Z,54.61
2023-04-28T15:31:17.324Z,54.65
2023-04-28T15:33:45.158Z,55.82
2023-04-28T15:36:14.720Z,56.27
2023-04-28T15:38:45.667Z,57.24
2023-04-28T15:41:13.569Z,57.51
2023-04-28T15:43:41.630Z,57.89
2023-04-28T15:46:11.390Z,58.05
2023-04-28T15:48:40.262Z,57.28
2023-04-28T15:51:08.198Z,56.82
2023-04-28T15:53:36.423Z,57.63
2023-04-28T15:56:04.273Z,57.95
2023-04-28T15:58:32.398Z,58.95
2023-04-28T16:01:01.507Z,59.29
2023-04-28T16:03:29.608Z,59.78
2023-04-28T16:05:58.133Z,60.42
2023-04-28T16:08:25.983Z,59.83
2023-04-28T16:10:53.836Z,60.51
2023-04-28T16:13:22.620Z,60.49
2023-04-28T16:15:51.982Z,60.75
2023-04-28T16:18:20.079Z,61.17
2023-04-28T16:20:48.090Z,61.18
2023-04-28T16:23:16.238Z,61.60
2023-04-28T16:25:44.596Z,61.40
2023-04-28T16:28:12.987Z,62.06
2023-04-28T16:30:41.269Z,61.79
2023-04-28T16:33:09.362Z,62.25
2023-04-28T16:35:37.733Z,62.24
2023-04-28T16:38:05.536Z,62.63
2023-04-28T16:40:33.442Z,62.73
2023-04-28T16:43:01.713Z,63.03
2023-04-28T16:45:30.002Z,63.39
2023-04-28T16:47:57.894Z,63.94
2023-04-28T16:50:25.939Z,64.31
2023-04-28T16:52:53.816Z,64.54
2023-04-28T16:55:21.769Z,65.31
2023-04-28T16:57:49.912Z,65.38
2023-04-28T17:00:17.788Z,65.86
2023-04-28T17:02:45.780Z,65.96
2023-04-28T17:05:13.727Z,65.21
2023-04-28T17:07:42.639Z,65.09
2023-04-28T17:10:10.450Z,64.76
2023-04-28T17:12:39.688Z,64.72
2023-04-28T17:15:08.029Z,64.50
2023-04-28T17:17:36.248Z,64.78
2023-04-28T17:20:04.813Z,65.18
2023-04-28T17:22:32.600Z,65.56
2023-04-28T17:25:00.489Z,65.23
2023-04-28T17:27:29.221Z,65.10
2023-04-28T17:29:57.029Z,65.11
2023-04-28T17:32:25.208Z,65.02
2023-04-28T17:34:53.227Z,65.65
2023-04-28T17:37:21.025Z,65.17
2023-04-28T17:39:50.076Z,65.32
2023-04-28T17:42:18.512Z,65.27
2023-04-28T17:44:46.316Z,65.68
2023-04-28T17:47:15.781Z,65.72
2023-04-28T17:49:44.989Z,65.62
2023-04-28T17:52:13.536Z,65.53
2023-04-28T17:54:41.399Z,65.92
2023-04-28T17:57:09.760Z,65.31
2023-04-28T17:59:37.873Z,65.61
2023-04-28T18:02:05.968Z,66.00
2023-04-28T18:04:34.040Z,65.67
2023-04-28T18:07:01.811Z,65.62
2023-04-28T18:09:30.810Z,65.78
2023-04-28T18:11:58.780Z,66.47
2023-04-28T18:14:27.631Z,66.33
2023-04-28T18:16:55.893Z,66.60
2023-04-28T18:19:23.849Z,66.05
2023-04-28T18:21:52.291Z,66.31
2023-04-28T18:24:20.030Z,66.52
2023-04-28T18:26:48.060Z,66.19
2023-04-28T18:29:16.342Z,66.26
2023-04-28T18:31:44.291Z,66.55
2023-04-28T18:34:12.741Z,66.93
2023-04-28T18:36:40.978Z,66.64
2023-04-28T18:39:09.302Z,66.62
2023-04-28T18:41:38.156Z,66.82
2023-04-28T18:44:06.092Z,66.86
2023-04-28T18:46:35.037Z,66.83
2023-04-28T18:49:03.370Z,66.63
2023-04-28T18:51:31.123Z,66.87
2023-04-28T18:53:59.574Z,66.87
2023-04-28T18:56:27.661Z,66.65
2023-04-28T18:58:55.589Z,66.43
2023-04-28T19:01:24.948Z,66.51
2023-04-28T19:03:53.594Z,66.96
2023-04-28T19:06:22.330Z,67.29
2023-04-28T19:08:50.119Z,67.60
2023-04-28T19:11:18.552Z,67.36
2023-04-28T19:13:46.354Z,67.75
2023-04-28T19:16:14.265Z,67.49
2023-04-28T19:18:43.010Z,67.58
2023-04-28T19:21:12.451Z,67.71
2023-04-28T19:23:41.402Z,68.19
2023-04-28T19:26:09.492Z,68.58
2023-04-28T19:28:37.401Z,68.29
2023-04-28T19:31:05.578Z,68.81
2023-04-28T19:33:33.496Z,69.25
2023-04-28T19:36:01.644Z,69.69
2023-04-28T19:38:29.818Z,69.86
2023-04-28T19:40:58.128Z,69.64
2023-04-28T19:43:26.320Z,69.97
2023-04-28T19:45:54.283Z,69.89
2023-04-28T19:48:22.419Z,69.83
2023-04-28T19:50:50.280Z,69.71
2023-04-28T19:53:19.206Z,69.94
2023-04-28T19:55:47.603Z,69.87
2023-04-28T19:58:16.498Z,69.76
2023-04-28T20:00:45.549Z,70.08
2023-04-28T20:03:15.145Z,69.36
2023-04-28T20:05:43.371Z,69.63
2023-04-28T20:08:11.446Z,69.63
2023-04-28T20:10:39.417Z,69.09
2023-04-28T20:13:08.233Z,69.39
2023-04-28T20:15:36.411Z,69.33
2023-04-28T20:18:04.560Z,69.16
2023-04-28T20:20:32.826Z,69.70
2023-04-28T20:23:00.592Z,69.36
2023-04-28T20:25:28.464Z,69.74
2023-04-28T20:27:56.530Z,69.60
2023-04-28T20:30:24.472Z,70.05
2023-04-28T20:32:52.505Z,69.76
2023-04-28T20:35:20.738Z,69.89
2023-04-28T20:37:49.259Z,70.38
2023-04-28T20:40:17.216Z,70.27
2023-04-28T20:42:45.015Z,70.90
2023-04-28T20:45:13.446Z,70.74
2023-04-28T20:47:43.362Z,70.87
2023-04-28T20:50:11.847Z,70.56
2023-04-28T20:52:39.636Z,70.52
2023-04-28T20:55:07.520Z,70.22
2023-04-28T20:57:35.585Z,70.25
2023-04-28T21:00:04.689Z,70.17
2023-04-28T21:02:32.592Z,70.52
2023-04-28T21:05:00.592Z,70.65
2023-04-28T21:07:28.440Z,70.58
2023-04-28T21:09:57.132Z,70.04
2023-04-28T21:12:25.374Z,70.06
2023-04-28T21:14:53.184Z,70.52
2023-04-28T21:17:21.025Z,70.17
2023-04-28T21:19:49.025Z,70.44
2023-04-28T21:22:17.353Z,70.24
2023-04-28T21:24:45.252Z,70.39
2023-04-28T21:27:13.378Z,70.28
2023-04-28T21:29:41.311Z,70.31
2023-04-28T21:32:10.110Z,70.86
2023-04-28T21:34:38.041Z,70.48
2023-04-28T21:37:05.927Z,70.77
2023-04-28T21:39:34.151Z,71.08
2023-04-28T21:42:02.024Z,71.35
2023-04-28T21:44:29.992Z,71.38
2023-04-28T21:46:58.466Z,71.62
2023-04-28T21:49:26.217Z,71.92
2023-04-28T21:51:54.046Z,72.30
2023-04-28T21:54:22.141Z,72.04
2023-04-28T21:56:49.907Z,72.32
2023-04-28T21:59:18.551Z,72.61
2023-04-28T22:01:46.545Z,72.04
2023-04-28T22:04:15.324Z,72.67
2023-04-28T22:06:44.871Z,72.85
2023-04-28T22:09:12.770Z,72.38
2023-04-28T22:11:40.538Z,72.28
2023-04-28T22:14:08.406Z,72.89
2023-04-28T22:16:37.296Z,72.27
2023-04-28T22:19:05.148Z,73.00
2023-04-28T22:21:33.577Z,72.89
2023-04-28T22:24:01.894Z,72.62
2023-04-28T22:26:29.609Z,73.05
2023-04-28T22:28:57.419Z,72.68
2023-04-28T22:31:25.264Z,72.66
2023-04-28T22:33:52.967Z,72.64
2023-04-28T22:36:21.362Z,73.15
2023-04-28T22:38:50.705Z,73.08
2023-04-28T22:41:18.959Z,73.11
2023-04-28T22:43:46.807Z,72.73
2023-04-28T22:46:14.630Z,72.80
2023-04-28T22:48:42.420Z,72.68
2023-04-28T22:51:10.308Z,72.54
2023-04-28T22:53:38.075Z,72.58
2023-04-28T22:56:05.804Z,72.58
2023-04-28T22:58:33.466Z,72.69
2023-04-28T23:01:01.808Z,73.21
2023-04-28T23:03:29.589Z,72.92
2023-04-28T23:05:57.496Z,72.58
2023-04-28T23:08:25.301Z,72.98
2023-04-28T23:10:53.013Z,73.19
2023-04-28T23:13:21.053Z,73.26
2023-04-28T23:15:49.082Z,73.28
2023-04-28T23:18:17.097Z,73.24
2023-04-28T23:20:44.780Z,73.14
2023-04-28T23:23:16.233Z,73.11
2023-04-28T23:25:44.074Z,73.03
2023-04-28T23:28:11.947Z,73.61
2023-04-28T23:30:39.662Z,73.76
2023-04-28T23:33:07.374Z,72.99
2023-04-28T23:35:35.054Z,73.67
2023-04-28T23:38:03.070Z,73.92
2023-04-28T23:40:30.701Z,73.74
2023-04-28T23:42:58.643Z,74.14
2023-04-28T23:45:26.650Z,74.23
2023-04-28T23:47:54.609Z,73.94
2023-04-28T23:50:22.794Z,74.62
2023-04-28T23:52:50.600Z,74.13
2023-04-28T23:55:18.503Z,73.96
2023-04-28T23:57:46.295Z,74.49
